sensor_id;sensor_type;location;lat;lon;timestamp;pressure;altitude;pressure_sealevel;temperature;humidity
64521;BME280;50896;46.714;17.322;2022-10-20T00:02:16;101459.28;;;11.37;67.05
64521;BME280;50896;46.714;17.322;2022-10-20T00:04:45;101457.03;;;11.42;66.95
64521;BME280;50896;46.714;17.322;2022-10-20T00:07:18;101460.16;;;11.37;67.55
64521;BME280;50896;46.714;17.322;2022-10-20T00:09:48;101468.53;;;11.42;66.85
64521;BME280;50896;46.714;17.322;2022-10-20T00:12:20;101473.03;;;11.42;66.78
64521;BME280;50896;46.714;17.322;2022-10-20T00:14:48;101472.03;;;11.43;66.70
64521;BME280;50896;46.714;17.322;2022-10-20T00:17:15;101471.34;;;11.41;66.65
64521;BME280;50896;46.714;17.322;2022-10-20T00:19:51;101467.84;;;11.40;67.23
64521;BME280;50896;46.714;17.322;2022-10-20T00:22:18;101473.19;;;11.31;68.06
64521;BME280;50896;46.714;17.322;2022-10-20T00:24:46;101467.84;;;11.31;68.19
64521;BME280;50896;46.714;17.322;2022-10-20T00:27:19;101456.78;;;11.35;68.61
64521;BME280;50896;46.714;17.322;2022-10-20T00:29:47;101444.59;;;11.23;68.59
64521;BME280;50896;46.714;17.322;2022-10-20T00:32:14;101455.38;;;11.21;69.39
64521;BME280;50896;46.714;17.322;2022-10-20T00:34:46;101454.69;;;11.09;70.00
64521;BME280;50896;46.714;17.322;2022-10-20T00:37:20;101461.53;;;11.12;70.24
64521;BME280;50896;46.714;17.322;2022-10-20T00:39:47;101464.47;;;11.09;70.60
64521;BME280;50896;46.714;17.322;2022-10-20T00:42:16;101460.84;;;11.10;69.60
64521;BME280;50896;46.714;17.322;2022-10-20T00:49:50;101464.75;;;11.06;70.09
64521;BME280;50896;46.714;17.322;2022-10-20T00:52:19;101469.25;;;11.05;70.35
64521;BME280;50896;46.714;17.322;2022-10-20T00:54:49;101461.41;;;11.04;70.10
64521;BME280;50896;46.714;17.322;2022-10-20T00:57:21;101457.06;;;11.03;70.79
64521;BME280;50896;46.714;17.322;2022-10-20T00:59:48;101455.53;;;11.00;70.77
64521;BME280;50896;46.714;17.322;2022-10-20T01:02:15;101447.69;;;10.99;70.67
64521;BME280;50896;46.714;17.322;2022-10-20T01:04:43;101447.97;;;10.96;70.49
64521;BME280;50896;46.714;17.322;2022-10-20T01:07:11;101440.13;;;10.84;70.91
64521;BME280;50896;46.714;17.322;2022-10-20T01:09:37;101454.13;;;10.86;71.14
64521;BME280;50896;46.714;17.322;2022-10-20T01:12:43;101444.06;;;10.90;70.87
64521;BME280;50896;46.714;17.322;2022-10-20T01:15:22;101425.53;;;10.88;71.56
64521;BME280;50896;46.714;17.322;2022-10-20T01:32:09;101437.69;;;10.62;72.62
64521;BME280;50896;46.714;17.322;2022-10-20T01:35:00;101438.81;;;10.59;72.36
64521;BME280;50896;46.714;17.322;2022-10-20T01:40:36;101450.41;;;10.38;72.42
64521;BME280;50896;46.714;17.322;2022-10-20T01:43:12;101452.28;;;10.26;73.18
64521;BME280;50896;46.714;17.322;2022-10-20T01:45:47;101454.25;;;10.24;73.55
64521;BME280;50896;46.714;17.322;2022-10-20T01:48:20;101442.75;;;10.24;74.12
64521;BME280;50896;46.714;17.322;2022-10-20T01:50:49;101438.44;;;10.23;73.57
64521;BME280;50896;46.714;17.322;2022-10-20T01:53:16;101445.69;;;10.21;73.39
64521;BME280;50896;46.714;17.322;2022-10-20T01:55:50;101446.53;;;10.21;73.01
64521;BME280;50896;46.714;17.322;2022-10-20T02:01:30;101450.16;;;10.20;72.10
64521;BME280;50896;46.714;17.322;2022-10-20T02:03:57;101446.47;;;10.12;73.29
64521;BME280;50896;46.714;17.322;2022-10-20T02:06:51;101449.44;;;10.18;72.84
64521;BME280;50896;46.714;17.322;2022-10-20T02:09:31;101457.78;;;10.04;73.70
64521;BME280;50896;46.714;17.322;2022-10-20T02:12:08;101446.59;;;10.10;73.26
64521;BME280;50896;46.714;17.322;2022-10-20T02:14:38;101451.88;;;10.00;73.71
64521;BME280;50896;46.714;17.322;2022-10-20T02:17:11;101454.50;;;9.90;74.11
64521;BME280;50896;46.714;17.322;2022-10-20T02:19:47;101453.63;;;9.80;74.75
64521;BME280;50896;46.714;17.322;2022-10-20T02:22:15;101455.69;;;9.77;75.60
64521;BME280;50896;46.714;17.322;2022-10-20T02:24:45;101453.09;;;9.65;76.54
64521;BME280;50896;46.714;17.322;2022-10-20T02:27:19;101447.75;;;9.55;77.28
64521;BME280;50896;46.714;17.322;2022-10-20T02:29:55;101452.53;;;9.62;78.09
64521;BME280;50896;46.714;17.322;2022-10-20T02:32:24;101449.97;;;9.50;79.04
64521;BME280;50896;46.714;17.322;2022-10-20T02:34:54;101449.50;;;9.45;80.17
64521;BME280;50896;46.714;17.322;2022-10-20T02:37:21;101446.06;;;9.54;79.57
64521;BME280;50896;46.714;17.322;2022-10-20T02:39:49;101433.88;;;9.73;79.26
64521;BME280;50896;46.714;17.322;2022-10-20T02:42:24;101424.31;;;9.91;77.76
64521;BME280;50896;46.714;17.322;2022-10-20T02:44:51;101418.91;;;10.03;74.81
64521;BME280;50896;46.714;17.322;2022-10-20T02:47:18;101423.91;;;9.96;73.20
64521;BME280;50896;46.714;17.322;2022-10-20T02:49:46;101421.84;;;10.00;73.01
64521;BME280;50896;46.714;17.322;2022-10-20T02:52:14;101429.81;;;10.00;73.14
64521;BME280;50896;46.714;17.322;2022-10-20T02:54:46;101430.06;;;9.97;73.40
64521;BME280;50896;46.714;17.322;2022-10-20T02:57:16;101430.66;;;10.10;72.90
64521;BME280;50896;46.714;17.322;2022-10-20T02:59:43;101429.03;;;10.19;71.97
64521;BME280;50896;46.714;17.322;2022-10-20T03:02:11;101436.63;;;10.33;71.41
64521;BME280;50896;46.714;17.322;2022-10-20T03:04:43;101435.41;;;10.37;71.84
64521;BME280;50896;46.714;17.322;2022-10-20T03:07:15;101444.94;;;10.40;72.58
64521;BME280;50896;46.714;17.322;2022-10-20T03:09:44;101443.78;;;10.33;72.81
64521;BME280;50896;46.714;17.322;2022-10-20T03:12:12;101433.59;;;10.48;71.18
64521;BME280;50896;46.714;17.322;2022-10-20T03:14:43;101434.91;;;10.63;70.36
64521;BME280;50896;46.714;17.322;2022-10-20T03:17:13;101431.41;;;10.63;68.68
64521;BME280;50896;46.714;17.322;2022-10-20T03:19:47;101441.34;;;10.60;69.40
64521;BME280;50896;46.714;17.322;2022-10-20T03:22:15;101441.44;;;10.49;70.00
64521;BME280;50896;46.714;17.322;2022-10-20T03:24:51;101437.81;;;10.50;69.34
64521;BME280;50896;46.714;17.322;2022-10-20T03:27:18;101434.50;;;10.58;70.26
64521;BME280;50896;46.714;17.322;2022-10-20T03:29:46;101432.09;;;10.55;70.00
64521;BME280;50896;46.714;17.322;2022-10-20T03:32:18;101434.19;;;10.51;70.18
64521;BME280;50896;46.714;17.322;2022-10-20T03:34:46;101447.19;;;10.45;71.55
64521;BME280;50896;46.714;17.322;2022-10-20T03:37:16;101441.31;;;10.41;71.99
64521;BME280;50896;46.714;17.322;2022-10-20T03:39:43;101456.13;;;10.43;70.09
64521;BME280;50896;46.714;17.322;2022-10-20T03:42:13;101445.81;;;10.19;72.92
64521;BME280;50896;46.714;17.322;2022-10-20T03:44:47;101447.72;;;9.98;74.81
64521;BME280;50896;46.714;17.322;2022-10-20T03:47:14;101458.16;;;9.89;74.60
64521;BME280;50896;46.714;17.322;2022-10-20T03:49:41;101466.13;;;9.89;75.34
64521;BME280;50896;46.714;17.322;2022-10-20T03:52:09;101467.03;;;9.79;76.17
64521;BME280;50896;46.714;17.322;2022-10-20T03:54:40;101471.31;;;9.70;76.62
64521;BME280;50896;46.714;17.322;2022-10-20T03:57:09;101464.00;;;9.62;76.33
64521;BME280;50896;46.714;17.322;2022-10-20T03:59:37;101465.63;;;9.53;77.32
64521;BME280;50896;46.714;17.322;2022-10-20T04:04:59;101456.38;;;9.48;78.10
64521;BME280;50896;46.714;17.322;2022-10-20T04:07:28;101465.09;;;9.38;78.69
64521;BME280;50896;46.714;17.322;2022-10-20T04:09:55;101464.00;;;9.20;78.88
64521;BME280;50896;46.714;17.322;2022-10-20T04:12:24;101470.66;;;9.14;79.41
64521;BME280;50896;46.714;17.322;2022-10-20T04:14:53;101459.69;;;9.07;80.20
64521;BME280;50896;46.714;17.322;2022-10-20T04:17:22;101455.34;;;9.06;80.04
64521;BME280;50896;46.714;17.322;2022-10-20T04:19:50;101449.56;;;9.01;80.57
64521;BME280;50896;46.714;17.322;2022-10-20T04:22:17;101454.59;;;8.83;81.28
64521;BME280;50896;46.714;17.322;2022-10-20T04:24:46;101456.03;;;8.76;82.29
64521;BME280;50896;46.714;17.322;2022-10-20T04:27:20;101459.19;;;8.81;82.45
64521;BME280;50896;46.714;17.322;2022-10-20T04:29:51;101458.09;;;8.84;82.49
64521;BME280;50896;46.714;17.322;2022-10-20T04:32:18;101458.34;;;8.81;83.13
64521;BME280;50896;46.714;17.322;2022-10-20T04:34:47;101457.53;;;8.69;83.88
64521;BME280;50896;46.714;17.322;2022-10-20T04:37:14;101458.22;;;8.82;83.12
64521;BME280;50896;46.714;17.322;2022-10-20T04:39:42;101462.75;;;8.92;81.96
64521;BME280;50896;46.714;17.322;2022-10-20T04:42:11;101465.41;;;8.92;82.04
64521;BME280;50896;46.714;17.322;2022-10-20T04:44:42;101465.22;;;8.83;82.49
64521;BME280;50896;46.714;17.322;2022-10-20T04:47:10;101468.94;;;8.81;81.99
64521;BME280;50896;46.714;17.322;2022-10-20T04:49:41;101463.56;;;8.71;82.44
64521;BME280;50896;46.714;17.322;2022-10-20T04:52:12;101467.78;;;8.74;83.17
64521;BME280;50896;46.714;17.322;2022-10-20T04:54:43;101460.69;;;8.95;81.75
64521;BME280;50896;46.714;17.322;2022-10-20T04:57:15;101471.44;;;8.94;82.60
64521;BME280;50896;46.714;17.322;2022-10-20T04:59:46;101472.88;;;8.98;81.79
64521;BME280;50896;46.714;17.322;2022-10-20T05:02:14;101476.34;;;8.98;81.44
64521;BME280;50896;46.714;17.322;2022-10-20T05:04:50;101469.38;;;8.97;81.90
64521;BME280;50896;46.714;17.322;2022-10-20T05:07:23;101468.78;;;8.94;82.23
64521;BME280;50896;46.714;17.322;2022-10-20T05:09:52;101479.91;;;8.87;82.03
64521;BME280;50896;46.714;17.322;2022-10-20T05:12:19;101466.19;;;8.82;82.67
64521;BME280;50896;46.714;17.322;2022-10-20T05:14:46;101474.38;;;8.79;82.91
64521;BME280;50896;46.714;17.322;2022-10-20T05:17:13;101470.00;;;8.89;82.01
64521;BME280;50896;46.714;17.322;2022-10-20T05:19:42;101477.34;;;8.86;82.57
64521;BME280;50896;46.714;17.322;2022-10-20T05:22:09;101478.47;;;8.83;83.35
64521;BME280;50896;46.714;17.322;2022-10-20T05:27:14;101482.25;;;9.02;82.54
64521;BME280;50896;46.714;17.322;2022-10-20T05:29:41;101481.41;;;9.01;82.44
64521;BME280;50896;46.714;17.322;2022-10-20T05:32:10;101480.53;;;9.12;82.21
64521;BME280;50896;46.714;17.322;2022-10-20T05:34:38;101481.97;;;9.16;82.40
64521;BME280;50896;46.714;17.322;2022-10-20T05:37:05;101477.16;;;9.10;83.39
64521;BME280;50896;46.714;17.322;2022-10-20T05:39:33;101482.22;;;9.13;82.81
64521;BME280;50896;46.714;17.322;2022-10-20T05:42:00;101487.16;;;9.39;80.80
64521;BME280;50896;46.714;17.322;2022-10-20T05:44:27;101487.88;;;9.41;80.06
64521;BME280;50896;46.714;17.322;2022-10-20T05:46:55;101493.88;;;9.54;80.28
64521;BME280;50896;46.714;17.322;2022-10-20T05:49:22;101489.78;;;9.71;79.53
64521;BME280;50896;46.714;17.322;2022-10-20T05:51:49;101489.91;;;9.70;79.23
64521;BME280;50896;46.714;17.322;2022-10-20T05:54:16;101491.91;;;9.56;79.56
64521;BME280;50896;46.714;17.322;2022-10-20T05:56:43;101491.97;;;9.66;79.85
64521;BME280;50896;46.714;17.322;2022-10-20T05:59:14;101499.53;;;9.71;78.90
64521;BME280;50896;46.714;17.322;2022-10-20T06:01:41;101510.50;;;9.78;79.10
64521;BME280;50896;46.714;17.322;2022-10-20T06:04:19;101518.16;;;10.02;77.46
64521;BME280;50896;46.714;17.322;2022-10-20T06:06:50;101525.50;;;10.09;77.01
64521;BME280;50896;46.714;17.322;2022-10-20T06:09:18;101520.78;;;10.13;77.19
64521;BME280;50896;46.714;17.322;2022-10-20T06:11:46;101517.38;;;10.11;76.89
64521;BME280;50896;46.714;17.322;2022-10-20T06:14:13;101514.09;;;10.19;76.42
64521;BME280;50896;46.714;17.322;2022-10-20T06:16:40;101518.72;;;10.26;75.75
64521;BME280;50896;46.714;17.322;2022-10-20T06:19:07;101516.41;;;10.12;76.69
64521;BME280;50896;46.714;17.322;2022-10-20T06:21:36;101520.59;;;10.05;77.83
64521;BME280;50896;46.714;17.322;2022-10-20T06:24:11;101524.03;;;9.96;77.79
64521;BME280;50896;46.714;17.322;2022-10-20T06:26:38;101519.22;;;10.11;77.55
64521;BME280;50896;46.714;17.322;2022-10-20T06:29:08;101519.81;;;10.24;77.04
64521;BME280;50896;46.714;17.322;2022-10-20T06:31:41;101540.94;;;10.25;77.05
64521;BME280;50896;46.714;17.322;2022-10-20T06:34:14;101523.47;;;10.23;77.26
64521;BME280;50896;46.714;17.322;2022-10-20T06:36:42;101530.75;;;10.31;76.42
64521;BME280;50896;46.714;17.322;2022-10-20T06:39:12;101525.66;;;10.39;76.41
64521;BME280;50896;46.714;17.322;2022-10-20T06:41:40;101540.38;;;10.43;76.12
64521;BME280;50896;46.714;17.322;2022-10-20T06:44:17;101535.22;;;10.51;76.28
64521;BME280;50896;46.714;17.322;2022-10-20T06:46:44;101543.38;;;10.59;75.83
64521;BME280;50896;46.714;17.322;2022-10-20T06:49:14;101543.53;;;10.68;75.69
64521;BME280;50896;46.714;17.322;2022-10-20T06:51:41;101537.13;;;10.80;75.85
64521;BME280;50896;46.714;17.322;2022-10-20T06:54:07;101549.59;;;10.89;74.46
64521;BME280;50896;46.714;17.322;2022-10-20T06:56:36;101547.97;;;10.98;74.14
64521;BME280;50896;46.714;17.322;2022-10-20T06:59:04;101542.91;;;11.05;74.39
64521;BME280;50896;46.714;17.322;2022-10-20T07:01:35;101549.09;;;11.15;73.21
64521;BME280;50896;46.714;17.322;2022-10-20T07:04:08;101545.44;;;11.06;74.52
64521;BME280;50896;46.714;17.322;2022-10-20T07:06:38;101552.00;;;11.02;74.38
64521;BME280;50896;46.714;17.322;2022-10-20T07:09:11;101552.56;;;10.96;74.25
64521;BME280;50896;46.714;17.322;2022-10-20T07:11:45;101549.47;;;11.01;74.69
64521;BME280;50896;46.714;17.322;2022-10-20T07:14:18;101544.31;;;10.99;75.30
64521;BME280;50896;46.714;17.322;2022-10-20T07:16:52;101540.81;;;10.99;75.24
64521;BME280;50896;46.714;17.322;2022-10-20T07:19:19;101535.94;;;11.04;75.11
64521;BME280;50896;46.714;17.322;2022-10-20T07:21:46;101542.66;;;11.08;75.02
64521;BME280;50896;46.714;17.322;2022-10-20T07:24:15;101536.47;;;11.07;75.06
64521;BME280;50896;46.714;17.322;2022-10-20T07:26:44;101535.94;;;11.04;75.19
64521;BME280;50896;46.714;17.322;2022-10-20T07:29:12;101530.59;;;11.04;75.46
64521;BME280;50896;46.714;17.322;2022-10-20T07:31:46;101527.94;;;10.94;76.36
64521;BME280;50896;46.714;17.322;2022-10-20T07:34:16;101529.91;;;11.11;75.08
64521;BME280;50896;46.714;17.322;2022-10-20T07:36:58;101530.88;;;11.30;77.70
64521;BME280;50896;46.714;17.322;2022-10-20T07:39:26;101530.88;;;11.40;78.68
64521;BME280;50896;46.714;17.322;2022-10-20T07:41:53;101523.47;;;11.53;79.17
64521;BME280;50896;46.714;17.322;2022-10-20T07:44:20;101531.44;;;11.73;78.85
64521;BME280;50896;46.714;17.322;2022-10-20T07:46:49;101525.09;;;11.93;78.65
64521;BME280;50896;46.714;17.322;2022-10-20T07:49:20;101525.66;;;11.87;78.15
64521;BME280;50896;46.714;17.322;2022-10-20T07:52:12;101528.72;;;12.02;77.35
64521;BME280;50896;46.714;17.322;2022-10-20T07:54:44;101528.56;;;12.13;77.24
64521;BME280;50896;46.714;17.322;2022-10-20T07:57:11;101524.06;;;12.24;75.15
64521;BME280;50896;46.714;17.322;2022-10-20T07:59:38;101520.41;;;12.15;75.03
64521;BME280;50896;46.714;17.322;2022-10-20T08:02:05;101531.78;;;12.17;75.29
64521;BME280;50896;46.714;17.322;2022-10-20T08:04:33;101538.88;;;12.26;73.62
64521;BME280;50896;46.714;17.322;2022-10-20T08:07:02;101525.19;;;12.21;72.80
64521;BME280;50896;46.714;17.322;2022-10-20T08:09:39;101530.81;;;12.18;71.65
64521;BME280;50896;46.714;17.322;2022-10-20T08:12:08;101528.69;;;12.22;68.40
64521;BME280;50896;46.714;17.322;2022-10-20T08:14:39;101524.00;;;12.34;67.88
64521;BME280;50896;46.714;17.322;2022-10-20T08:17:07;101531.38;;;12.50;67.68
64521;BME280;50896;46.714;17.322;2022-10-20T08:19:36;101532.59;;;12.55;66.74
64521;BME280;50896;46.714;17.322;2022-10-20T08:22:20;101524.81;;;12.44;66.83
64521;BME280;50896;46.714;17.322;2022-10-20T08:24:56;101529.72;;;12.67;66.65
64521;BME280;50896;46.714;17.322;2022-10-20T08:27:23;101533.16;;;12.59;66.72
64521;BME280;50896;46.714;17.322;2022-10-20T08:29:52;101547.13;;;12.71;66.11
64521;BME280;50896;46.714;17.322;2022-10-20T08:32:38;101535.13;;;12.85;66.21
64521;BME280;50896;46.714;17.322;2022-10-20T08:35:07;101529.31;;;12.89;64.57
64521;BME280;50896;46.714;17.322;2022-10-20T08:37:35;101538.28;;;12.98;64.58
64521;BME280;50896;46.714;17.322;2022-10-20T08:40:04;101540.78;;;12.99;64.11
64521;BME280;50896;46.714;17.322;2022-10-20T08:42:38;101534.59;;;12.99;64.70
64521;BME280;50896;46.714;17.322;2022-10-20T08:45:13;101524.84;;;12.90;64.87
64521;BME280;50896;46.714;17.322;2022-10-20T08:47:45;101527.91;;;12.95;64.78
64521;BME280;50896;46.714;17.322;2022-10-20T08:50:18;101525.00;;;13.06;64.67
64521;BME280;50896;46.714;17.322;2022-10-20T08:52:52;101527.69;;;13.06;63.10
64521;BME280;50896;46.714;17.322;2022-10-20T08:55:28;101526.59;;;13.17;62.61
64521;BME280;50896;46.714;17.322;2022-10-20T08:58:01;101522.88;;;13.28;63.08
64521;BME280;50896;46.714;17.322;2022-10-20T09:00:31;101523.09;;;13.34;63.43
64521;BME280;50896;46.714;17.322;2022-10-20T09:03:22;101521.53;;;13.42;63.09
64521;BME280;50896;46.714;17.322;2022-10-20T09:05:55;101524.09;;;13.52;61.69
64521;BME280;50896;46.714;17.322;2022-10-20T09:08:28;101529.34;;;13.61;61.85
64521;BME280;50896;46.714;17.322;2022-10-20T09:10:56;101521.09;;;13.73;61.17
64521;BME280;50896;46.714;17.322;2022-10-20T09:13:28;101522.56;;;13.93;60.02
64521;BME280;50896;46.714;17.322;2022-10-20T09:19:15;101519.94;;;14.01;59.57
64521;BME280;50896;46.714;17.322;2022-10-20T09:21:48;101523.00;;;14.07;61.29
64521;BME280;50896;46.714;17.322;2022-10-20T09:24:21;101524.03;;;14.14;60.46
64521;BME280;50896;46.714;17.322;2022-10-20T09:26:49;101512.69;;;14.20;60.70
64521;BME280;50896;46.714;17.322;2022-10-20T09:29:36;101517.06;;;14.21;60.28
64521;BME280;50896;46.714;17.322;2022-10-20T09:32:31;101517.91;;;14.30;59.49
64521;BME280;50896;46.714;17.322;2022-10-20T09:35:25;101513.63;;;14.45;61.55
64521;BME280;50896;46.714;17.322;2022-10-20T09:40:33;101502.16;;;14.53;61.75
64521;BME280;50896;46.714;17.322;2022-10-20T09:43:23;101512.44;;;14.40;62.26
64521;BME280;50896;46.714;17.322;2022-10-20T09:45:54;101511.75;;;14.29;62.46
64521;BME280;50896;46.714;17.322;2022-10-20T09:48:47;101500.84;;;14.23;62.86
64521;BME280;50896;46.714;17.322;2022-10-20T09:51:25;101497.56;;;14.37;61.90
64521;BME280;50896;46.714;17.322;2022-10-20T09:54:07;101492.06;;;14.47;61.57
64521;BME280;50896;46.714;17.322;2022-10-20T09:57:13;101501.25;;;14.36;61.85
64521;BME280;50896;46.714;17.322;2022-10-20T09:59:46;101495.28;;;14.50;59.44
64521;BME280;50896;46.714;17.322;2022-10-20T10:04:53;101492.19;;;14.72;59.24
64521;BME280;50896;46.714;17.322;2022-10-20T10:10:27;101485.75;;;14.56;57.39
64521;BME280;50896;46.714;17.322;2022-10-20T10:12:57;101490.63;;;14.61;57.34
64521;BME280;50896;46.714;17.322;2022-10-20T10:15:39;101484.16;;;14.72;56.08
64521;BME280;50896;46.714;17.322;2022-10-20T10:18:13;101488.16;;;14.67;57.46
64521;BME280;50896;46.714;17.322;2022-10-20T10:20:45;101483.34;;;14.71;57.35
64521;BME280;50896;46.714;17.322;2022-10-20T10:23:29;101485.00;;;14.64;58.15
64521;BME280;50896;46.714;17.322;2022-10-20T10:26:40;101484.44;;;14.60;57.18
64521;BME280;50896;46.714;17.322;2022-10-20T10:29:16;101475.41;;;14.61;58.18
64521;BME280;50896;46.714;17.322;2022-10-20T10:31:57;101471.84;;;14.52;58.68
64521;BME280;50896;46.714;17.322;2022-10-20T10:34:28;101471.38;;;14.57;59.47
64521;BME280;50896;46.714;17.322;2022-10-20T10:37:04;101465.06;;;14.66;59.64
64521;BME280;50896;46.714;17.322;2022-10-20T10:39:37;101459.41;;;14.69;60.80
64521;BME280;50896;46.714;17.322;2022-10-20T10:50:57;101466.13;;;14.90;61.09
64521;BME280;50896;46.714;17.322;2022-10-20T10:56:20;101457.06;;;14.75;61.88
64521;BME280;50896;46.714;17.322;2022-10-20T10:59:00;101459.59;;;14.68;62.52
64521;BME280;50896;46.714;17.322;2022-10-20T11:20:56;101420.94;;;14.87;62.82
64521;BME280;50896;46.714;17.322;2022-10-20T11:26:35;101430.28;;;14.75;61.43
64521;BME280;50896;46.714;17.322;2022-10-20T11:29:41;101421.28;;;14.76;61.42
64521;BME280;50896;46.714;17.322;2022-10-20T11:35:05;101413.94;;;14.78;61.93
64521;BME280;50896;46.714;17.322;2022-10-20T11:38:04;101408.06;;;14.91;62.13
64521;BME280;50896;46.714;17.322;2022-10-20T11:40:47;101395.19;;;15.02;60.05
64521;BME280;50896;46.714;17.322;2022-10-20T11:46:08;101379.56;;;15.39;58.86
64521;BME280;50896;46.714;17.322;2022-10-20T11:48:44;101372.03;;;15.51;58.87
64521;BME280;50896;46.714;17.322;2022-10-20T11:54:40;101363.78;;;16.09;56.83
64521;BME280;50896;46.714;17.322;2022-10-20T11:57:35;101365.53;;;15.93;56.20
64521;BME280;50896;46.714;17.322;2022-10-20T12:11:57;101353.97;;;15.36;58.04
64521;BME280;50896;46.714;17.322;2022-10-20T12:14:40;101335.19;;;15.45;58.41
64521;BME280;50896;46.714;17.322;2022-10-20T12:17:36;101333.88;;;15.41;58.95
64521;BME280;50896;46.714;17.322;2022-10-20T12:22:50;101319.63;;;15.40;58.31
64521;BME280;50896;46.714;17.322;2022-10-20T12:30:55;101312.47;;;15.32;57.93
64521;BME280;50896;46.714;17.322;2022-10-20T12:33:57;101310.59;;;15.33;57.48
64521;BME280;50896;46.714;17.322;2022-10-20T12:36:31;101314.44;;;15.38;57.73
64521;BME280;50896;46.714;17.322;2022-10-20T12:39:15;101306.91;;;15.42;55.59
64521;BME280;50896;46.714;17.322;2022-10-20T12:41:58;101307.56;;;15.44;57.49
64521;BME280;50896;46.714;17.322;2022-10-20T12:44:41;101309.88;;;15.47;56.58
64521;BME280;50896;46.714;17.322;2022-10-20T12:47:27;101311.31;;;15.66;56.26
64521;BME280;50896;46.714;17.322;2022-10-20T12:52:48;101310.13;;;16.09;54.19
64521;BME280;50896;46.714;17.322;2022-10-20T12:55:19;101303.25;;;15.83;53.51
64521;BME280;50896;46.714;17.322;2022-10-20T13:03:45;101293.59;;;15.57;55.41
64521;BME280;50896;46.714;17.322;2022-10-20T13:11:43;101292.84;;;15.32;54.95
64521;BME280;50896;46.714;17.322;2022-10-20T13:14:47;101294.22;;;15.19;55.31
64521;BME280;50896;46.714;17.322;2022-10-20T13:17:33;101287.56;;;15.15;55.57
64521;BME280;50896;46.714;17.322;2022-10-20T13:22:58;101295.44;;;15.00;56.61
64521;BME280;50896;46.714;17.322;2022-10-20T13:28:27;101290.63;;;14.88;57.25
64521;BME280;50896;46.714;17.322;2022-10-20T13:31:29;101289.28;;;14.92;56.95
64521;BME280;50896;46.714;17.322;2022-10-20T13:48:44;101282.25;;;14.91;56.19
64521;BME280;50896;46.714;17.322;2022-10-20T13:51:26;101282.91;;;14.93;56.76
64521;BME280;50896;46.714;17.322;2022-10-20T13:54:05;101275.19;;;15.06;58.40
64521;BME280;50896;46.714;17.322;2022-10-20T13:56:35;101278.22;;;15.03;59.42
64521;BME280;50896;46.714;17.322;2022-10-20T13:59:20;101276.72;;;15.00;58.29
64521;BME280;50896;46.714;17.322;2022-10-20T14:01:56;101276.03;;;14.98;57.50
64521;BME280;50896;46.714;17.322;2022-10-20T14:07:10;101273.03;;;15.01;57.43
64521;BME280;50896;46.714;17.322;2022-10-20T14:09:40;101279.03;;;15.03;58.09
64521;BME280;50896;46.714;17.322;2022-10-20T14:12:23;101272.16;;;15.09;56.85
64521;BME280;50896;46.714;17.322;2022-10-20T14:14:54;101260.09;;;15.13;56.79
64521;BME280;50896;46.714;17.322;2022-10-20T14:17:28;101261.06;;;15.20;58.12
64521;BME280;50896;46.714;17.322;2022-10-20T14:20:19;101269.78;;;15.23;56.07
64521;BME280;50896;46.714;17.322;2022-10-20T14:22:52;101261.75;;;15.23;56.61
64521;BME280;50896;46.714;17.322;2022-10-20T14:25:26;101254.34;;;15.33;56.02
64521;BME280;50896;46.714;17.322;2022-10-20T14:27:56;101253.38;;;15.26;56.41
64521;BME280;50896;46.714;17.322;2022-10-20T14:30:24;101251.16;;;15.29;56.53
64521;BME280;50896;46.714;17.322;2022-10-20T14:32:53;101244.84;;;15.22;56.38
64521;BME280;50896;46.714;17.322;2022-10-20T14:35:45;101246.50;;;15.23;57.02
64521;BME280;50896;46.714;17.322;2022-10-20T14:38:34;101248.22;;;15.16;55.91
64521;BME280;50896;46.714;17.322;2022-10-20T14:41:07;101251.56;;;15.10;56.66
64521;BME280;50896;46.714;17.322;2022-10-20T14:43:46;101249.25;;;14.98;56.02
64521;BME280;50896;46.714;17.322;2022-10-20T14:46:28;101245.75;;;14.90;55.04
64521;BME280;50896;46.714;17.322;2022-10-20T14:48:59;101249.31;;;14.82;55.11
64521;BME280;50896;46.714;17.322;2022-10-20T14:51:42;101254.16;;;14.78;55.57
64521;BME280;50896;46.714;17.322;2022-10-20T14:56:49;101247.47;;;14.66;57.25
64521;BME280;50896;46.714;17.322;2022-10-20T14:59:21;101254.31;;;14.60;58.19
64521;BME280;50896;46.714;17.322;2022-10-20T15:04:37;101241.44;;;14.56;59.19
64521;BME280;50896;46.714;17.322;2022-10-20T15:07:16;101250.63;;;14.45;60.91
64521;BME280;50896;46.714;17.322;2022-10-20T15:09:58;101244.59;;;14.43;60.04
64521;BME280;50896;46.714;17.322;2022-10-20T15:12:41;101244.47;;;14.44;60.07
64521;BME280;50896;46.714;17.322;2022-10-20T15:17:40;101249.78;;;14.28;60.44
64521;BME280;50896;46.714;17.322;2022-10-20T15:23:00;101228.38;;;14.11;62.15
64521;BME280;50896;46.714;17.322;2022-10-20T15:25:57;101233.06;;;14.01;62.34
64521;BME280;50896;46.714;17.322;2022-10-20T15:31:28;101232.38;;;13.99;62.46
64521;BME280;50896;46.714;17.322;2022-10-20T15:33:58;101217.97;;;13.83;62.61
64521;BME280;50896;46.714;17.322;2022-10-20T15:36:27;101214.78;;;13.80;63.06
64521;BME280;50896;46.714;17.322;2022-10-20T15:39:00;101215.13;;;13.77;62.60
64521;BME280;50896;46.714;17.322;2022-10-20T15:41:35;101223.97;;;13.69;64.68
64521;BME280;50896;46.714;17.322;2022-10-20T15:46:32;101222.59;;;13.57;66.31
64521;BME280;50896;46.714;17.322;2022-10-20T15:49:04;101220.88;;;13.47;65.69
64521;BME280;50896;46.714;17.322;2022-10-20T15:51:36;101209.50;;;13.37;66.59
64521;BME280;50896;46.714;17.322;2022-10-20T15:54:13;101199.25;;;13.24;67.66